Time;durP1;ratioP1;P1;durP2;ratioP2;P2;SDS_P1;SDS_P2;PMS_P1;PMS_P2;Temp;Humidity;BMP_temperature;BMP_pressure;BME280_temperature;BME280_humidity;BME280_pressure;Samples;Min_cycle;Max_cycle;Signal;HPM_P1;HPM_P2
2023/02/05 00:00:11;;;;;;;34.13;15.73;;;;;;;;;;1033657;28;20021;-72
2023/02/05 00:00:42;;;;;;;31.92;14.55;;;;;;;;;;1032990;28;20014;-72
2023/02/05 00:01:12;;;;;;;27.58;15.23;;;;;;;;;;1031578;28;20085;-72
2023/02/05 00:01:43;;;;;;;41.80;16.83;;;;;;;;;;1030031;28;20022;-72
2023/02/05 00:02:14;;;;;;;30.85;15.48;;;;;;;;;;1032601;28;20098;-72
2023/02/05 00:02:44;;;;;;;34.42;15.57;;;;;;;;;;1038230;28;20022;-72
2023/02/05 00:03:15;;;;;;;34.45;15.35;;;;;;;;;;1037586;28;20113;-72
2023/02/05 00:03:45;;;;;;;26.65;10.85;;;;;;;;;;1035659;28;20535;-72
2023/02/05 00:04:16;;;;;;;38.53;14.15;;;;;;;;;;1037385;28;20495;-72
2023/02/05 00:04:47;;;;;;;30.75;15.02;;;;;;;;;;1035428;28;20033;-72
2023/02/05 00:05:17;;;;;;;35.28;15.52;;;;;;;;;;1037105;28;20083;-72
2023/02/05 00:05:48;;;;;;;34.40;13.43;;;;;;;;;;1033737;28;20113;-72
2023/02/05 00:06:18;;;;;;;41.92;16.52;;;;;;;;;;1034180;28;20104;-72
2023/02/05 00:06:51;;;;;;;29.10;13.85;;;;;;;;;;1034900;28;20057;-72
2023/02/05 00:07:22;;;;;;;37.30;13.77;;;;;;;;;;1036463;28;20114;-72
2023/02/05 00:07:52;;;;;;;56.17;17.77;;;;;;;;;;1040545;28;20451;-72
2023/02/05 00:08:26;;;;;;;41.95;18.70;;;;;;;;;;1035428;28;20034;-72
2023/02/05 00:08:57;;;;;;;37.83;16.70;;;;;;;;;;1037201;28;20164;-72
2023/02/05 00:09:27;;;;;;;40.30;18.30;;;;;;;;;;1035334;28;20025;-72
2023/02/05 00:09:58;;;;;;;50.25;18.65;;;;;;;;;;1035533;28;20053;-72
2023/02/05 00:10:28;;;;;;;37.40;16.35;;;;;;;;;;1035326;28;20105;-72
2023/02/05 00:11:04;;;;;;;33.28;14.88;;;;;;;;;;1036982;28;20108;-72
2023/02/05 00:11:34;;;;;;;36.47;16.90;;;;;;;;;;1037570;28;20034;-72
2023/02/05 00:12:05;;;;;;;45.30;16.60;;;;;;;;;;1037458;28;20030;-72
2023/02/05 00:12:35;;;;;;;43.33;18.58;;;;;;;;;;1035681;28;20108;-72
2023/02/05 00:13:07;;;;;;;50.97;19.35;;;;;;;;;;1034701;28;20022;-72
2023/02/05 00:13:39;;;;;;;42.58;16.77;;;;;;;;;;1034015;28;20037;-72
2023/02/05 00:14:10;;;;;;;38.53;17.08;;;;;;;;;;1035883;28;20057;-72
2023/02/05 00:14:40;;;;;;;51.58;16.27;;;;;;;;;;1036484;28;20036;-72
2023/02/05 00:15:11;;;;;;;40.38;17.80;;;;;;;;;;1037357;28;20029;-72
2023/02/05 00:15:41;;;;;;;40.90;15.77;;;;;;;;;;1038308;28;20018;-72
2023/02/05 00:16:15;;;;;;;33.40;16.17;;;;;;;;;;1032238;28;20026;-72
2023/02/05 00:16:46;;;;;;;36.78;15.68;;;;;;;;;;1036425;28;20164;-72
2023/02/05 00:17:17;;;;;;;40.47;17.40;;;;;;;;;;1037437;28;20079;-72
2023/02/05 00:17:47;;;;;;;30.33;17.05;;;;;;;;;;1037903;28;20967;-72
2023/02/05 00:18:17;;;;;;;32.08;13.90;;;;;;;;;;1035751;28;20428;-72
2023/02/05 00:18:48;;;;;;;33.42;14.90;;;;;;;;;;1036187;28;20018;-72
2023/02/05 00:19:19;;;;;;;29.02;15.93;;;;;;;;;;1034310;28;20021;-72
2023/02/05 00:19:49;;;;;;;39.00;17.30;;;;;;;;;;1035469;28;20021;-72
2023/02/05 00:20:20;;;;;;;45.90;16.50;;;;;;;;;;1036329;28;20032;-72
2023/02/05 00:20:50;;;;;;;32.40;14.57;;;;;;;;;;1034321;28;20496;-72
2023/02/05 00:21:21;;;;;;;39.88;13.57;;;;;;;;;;1036132;28;20488;-72
2023/02/05 00:21:51;;;;;;;32.47;13.27;;;;;;;;;;1035426;28;20477;-72
2023/02/05 00:22:22;;;;;;;35.45;13.35;;;;;;;;;;1036085;28;20029;-72
2023/02/05 00:22:52;;;;;;;25.88;12.75;;;;;;;;;;1041251;28;20104;-72
2023/02/05 00:23:23;;;;;;;26.65;14.00;;;;;;;;;;1037237;28;20053;-72
2023/02/05 00:23:53;;;;;;;28.33;14.98;;;;;;;;;;1035724;28;20171;-72
2023/02/05 00:24:24;;;;;;;31.50;13.48;;;;;;;;;;1037055;28;20027;-72
2023/02/05 00:24:54;;;;;;;31.70;12.48;;;;;;;;;;1037692;28;20060;-72
2023/02/05 00:25:25;;;;;;;33.20;14.48;;;;;;;;;;1037069;28;20064;-72
2023/02/05 00:25:55;;;;;;;22.38;10.82;;;;;;;;;;1038106;28;20022;-72
2023/02/05 00:26:26;;;;;;;29.23;13.63;;;;;;;;;;1036348;28;20018;-72
2023/02/05 00:26:56;;;;;;;26.75;13.88;;;;;;;;;;1037117;28;20029;-72
2023/02/05 00:27:27;;;;;;;27.52;13.40;;;;;;;;;;1036865;28;20366;-72
2023/02/05 00:27:57;;;;;;;29.38;13.60;;;;;;;;;;1037726;28;20433;-72
2023/02/05 00:28:30;;;;;;;29.80;13.48;;;;;;;;;;1036247;28;20030;-72
2023/02/05 00:29:00;;;;;;;25.80;13.15;;;;;;;;;;1038395;28;20037;-72
2023/02/05 00:29:30;;;;;;;27.65;12.40;;;;;;;;;;1035716;28;20048;-72
2023/02/05 00:30:01;;;;;;;28.05;13.70;;;;;;;;;;1037586;28;20093;-72
2023/02/05 00:30:31;;;;;;;26.58;12.27;;;;;;;;;;1037617;28;20072;-72
2023/02/05 00:31:09;;;;;;;26.08;12.63;;;;;;;;;;1037887;28;20113;-72
2023/02/05 00:31:40;;;;;;;29.48;12.38;;;;;;;;;;1036887;28;20441;-72
2023/02/05 00:32:10;;;;;;;23.23;11.05;;;;;;;;;;1036074;28;20028;-72
2023/02/05 00:32:41;;;;;;;21.02;11.25;;;;;;;;;;1035323;28;20024;-72
2023/02/05 00:33:11;;;;;;;27.02;12.18;;;;;;;;;;1037818;28;20022;-72
2023/02/05 00:33:42;;;;;;;30.38;13.90;;;;;;;;;;1036772;28;20021;-72
2023/02/05 00:34:13;;;;;;;23.65;11.23;;;;;;;;;;1036811;28;20034;-72
2023/02/05 00:34:43;;;;;;;27.60;11.45;;;;;;;;;;1037044;28;20022;-72
2023/02/05 00:35:14;;;;;;;27.08;13.75;;;;;;;;;;1036237;28;20025;-72
2023/02/05 00:35:44;;;;;;;25.80;12.95;;;;;;;;;;1036541;28;20018;-72
2023/02/05 00:36:15;;;;;;;26.15;11.10;;;;;;;;;;1037488;28;20095;-72
2023/02/05 00:36:46;;;;;;;22.48;10.57;;;;;;;;;;1035922;28;20022;-72
2023/02/05 00:37:16;;;;;;;29.13;11.80;;;;;;;;;;1034169;28;20520;-72
2023/02/05 00:37:46;;;;;;;23.13;11.50;;;;;;;;;;1031345;28;20033;-72
2023/02/05 00:38:17;;;;;;;27.30;13.05;;;;;;;;;;1031386;28;20034;-72
2023/02/05 00:38:48;;;;;;;18.77;10.63;;;;;;;;;;1034029;28;20030;-72
2023/02/05 00:39:18;;;;;;;21.60;10.65;;;;;;;;;;1034167;28;20699;-72
2023/02/05 00:39:49;;;;;;;22.90;10.65;;;;;;;;;;1035065;28;20022;-72
2023/02/05 00:40:19;;;;;;;36.95;14.35;;;;;;;;;;1036998;28;20022;-72
2023/02/05 00:40:50;;;;;;;34.88;11.50;;;;;;;;;;1037426;28;20739;-72
2023/02/05 00:41:20;;;;;;;20.92;10.30;;;;;;;;;;1035363;28;20061;-72
2023/02/05 00:41:51;;;;;;;33.15;13.70;;;;;;;;;;1035381;28;20018;-72
2023/02/05 00:42:21;;;;;;;19.92;10.18;;;;;;;;;;1034332;28;20046;-72
2023/02/05 00:42:52;;;;;;;23.50;11.02;;;;;;;;;;1035444;28;20458;-72
2023/02/05 00:43:23;;;;;;;18.65;9.82;;;;;;;;;;1036338;28;20100;-72
2023/02/05 00:43:53;;;;;;;24.17;11.15;;;;;;;;;;1038496;28;20020;-72
2023/02/05 00:44:23;;;;;;;23.63;12.60;;;;;;;;;;1036560;28;20109;-72
2023/02/05 00:44:54;;;;;;;31.38;11.07;;;;;;;;;;1036988;28;20025;-72
2023/02/05 00:45:24;;;;;;;18.38;10.57;;;;;;;;;;1038052;28;20061;-72
2023/02/05 00:45:55;;;;;;;23.55;10.02;;;;;;;;;;1036381;28;20026;-72
2023/02/05 00:46:26;;;;;;;23.05;11.63;;;;;;;;;;1037459;28;20021;-72
2023/02/05 00:46:57;;;;;;;23.15;10.50;;;;;;;;;;1036938;28;20030;-72
2023/02/05 00:47:27;;;;;;;18.92;9.50;;;;;;;;;;1035704;28;20028;-72
2023/02/05 00:47:57;;;;;;;26.73;10.10;;;;;;;;;;1037576;28;20030;-72
2023/02/05 00:48:28;;;;;;;21.52;9.13;;;;;;;;;;1036744;28;20688;-72
2023/02/05 00:48:58;;;;;;;17.13;9.38;;;;;;;;;;1038316;28;20598;-72
2023/02/05 00:49:29;;;;;;;17.40;10.77;;;;;;;;;;1037513;28;20013;-72
2023/02/05 00:49:59;;;;;;;26.13;10.75;;;;;;;;;;1037789;28;20026;-72
2023/02/05 00:50:30;;;;;;;15.98;8.80;;;;;;;;;;1036002;28;20022;-72
2023/02/05 00:51:01;;;;;;;24.10;9.73;;;;;;;;;;1035477;28;20030;-72
2023/02/05 00:51:31;;;;;;;19.65;10.02;;;;;;;;;;1036858;28;20089;-74
2023/02/05 00:52:03;;;;;;;19.75;9.88;;;;;;;;;;1036842;28;20026;-72
2023/02/05 00:52:33;;;;;;;25.65;11.00;;;;;;;;;;1037900;28;20021;-72
2023/02/05 00:53:04;;;;;;;19.88;8.02;;;;;;;;;;1038427;28;20018;-72
2023/02/05 00:53:34;;;;;;;21.13;9.57;;;;;;;;;;1036393;28;20030;-72
2023/02/05 00:54:05;;;;;;;14.95;7.80;;;;;;;;;;1037993;28;20018;-72
2023/02/05 00:54:35;;;;;;;17.65;8.25;;;;;;;;;;1037903;28;20030;-72
2023/02/05 00:55:06;;;;;;;15.13;8.32;;;;;;;;;;1037314;28;20025;-72
2023/02/05 00:55:36;;;;;;;15.90;9.50;;;;;;;;;;1036409;28;20024;-72
2023/02/05 00:56:07;;;;;;;19.13;8.63;;;;;;;;;;1033402;28;20426;-72
2023/02/05 00:56:37;;;;;;;14.93;7.25;;;;;;;;;;1036673;28;20022;-72
2023/02/05 00:57:08;;;;;;;18.63;8.43;;;;;;;;;;1035257;28;20501;-72
2023/02/05 00:57:38;;;;;;;15.63;7.32;;;;;;;;;;1036051;28;20022;-72
2023/02/05 00:58:09;;;;;;;19.58;10.30;;;;;;;;;;1034686;28;20030;-72
2023/02/05 00:58:39;;;;;;;17.70;7.32;;;;;;;;;;1036291;28;20037;-72
2023/02/05 00:59:10;;;;;;;15.60;9.27;;;;;;;;;;1037509;28;20144;-72
2023/02/05 00:59:40;;;;;;;16.77;7.38;;;;;;;;;;1042637;28;20071;-72
2023/02/05 01:00:11;;;;;;;15.20;7.93;;;;;;;;;;1041788;28;20128;-72
2023/02/05 01:00:42;;;;;;;18.42;8.60;;;;;;;;;;1036272;28;20112;-72
2023/02/05 01:01:13;;;;;;;14.90;8.43;;;;;;;;;;1035162;28;20022;-72
2023/02/05 01:01:43;;;;;;;15.98;7.07;;;;;;;;;;1036140;28;20049;-72
2023/02/05 01:02:14;;;;;;;20.75;7.07;;;;;;;;;;1034685;28;20022;-72
2023/02/05 01:02:44;;;;;;;13.98;8.25;;;;;;;;;;1036881;28;20097;-72
2023/02/05 01:03:15;;;;;;;14.85;7.70;;;;;;;;;;1038004;28;20509;-72
2023/02/05 01:03:46;;;;;;;17.30;8.55;;;;;;;;;;1038268;28;20025;-72
2023/02/05 01:04:16;;;;;;;14.93;7.80;;;;;;;;;;1037766;28;20018;-72
2023/02/05 01:04:46;;;;;;;16.38;7.28;;;;;;;;;;1037285;28;20030;-72
2023/02/05 01:05:17;;;;;;;17.77;8.90;;;;;;;;;;1037034;28;20025;-72
2023/02/05 01:05:48;;;;;;;13.15;8.27;;;;;;;;;;1037714;28;20041;-72
2023/02/05 01:06:19;;;;;;;17.33;7.18;;;;;;;;;;1036028;28;20021;-72
2023/02/05 01:06:50;;;;;;;23.33;8.90;;;;;;;;;;1036196;28;20575;-72
2023/02/05 01:07:20;;;;;;;12.27;7.60;;;;;;;;;;1035034;28;20022;-72
2023/02/05 01:07:51;;;;;;;14.32;8.68;;;;;;;;;;1033063;28;20018;-72
2023/02/05 01:08:22;;;;;;;17.20;6.43;;;;;;;;;;1034986;28;20030;-72
2023/02/05 01:08:52;;;;;;;14.10;7.13;;;;;;;;;;1032348;28;20498;-72
2023/02/05 01:09:23;;;;;;;15.95;6.00;;;;;;;;;;1028977;28;20019;-72
2023/02/05 01:09:53;;;;;;;19.48;9.55;;;;;;;;;;1033056;28;20022;-72
2023/02/05 01:10:24;;;;;;;22.42;8.80;;;;;;;;;;1033139;28;20028;-72
2023/02/05 01:10:55;;;;;;;11.63;6.82;;;;;;;;;;1038253;28;20085;-72
2023/02/05 01:11:26;;;;;;;17.80;8.07;;;;;;;;;;1038084;28;20028;-72
2023/02/05 01:11:56;;;;;;;15.63;7.57;;;;;;;;;;1037937;28;20025;-72
2023/02/05 01:12:27;;;;;;;16.80;7.38;;;;;;;;;;1037457;28;20021;-72
2023/02/05 01:12:57;;;;;;;11.45;6.50;;;;;;;;;;1036998;28;20017;-72
2023/02/05 01:13:28;;;;;;;18.73;7.75;;;;;;;;;;1038518;28;20026;-72
2023/02/05 01:13:58;;;;;;;14.10;7.88;;;;;;;;;;1037821;28;20024;-72
2023/02/05 01:14:29;;;;;;;16.90;7.78;;;;;;;;;;1036581;28;20128;-72
2023/02/05 01:15:00;;;;;;;18.85;8.18;;;;;;;;;;1038314;28;20018;-72
2023/02/05 01:15:30;;;;;;;16.00;6.95;;;;;;;;;;1032242;28;20056;-72
2023/02/05 01:16:01;;;;;;;19.98;8.02;;;;;;;;;;1032205;28;20092;-72
2023/02/05 01:16:31;;;;;;;13.05;6.03;;;;;;;;;;1031999;28;20033;-72
2023/02/05 01:17:02;;;;;;;19.90;8.70;;;;;;;;;;1037002;28;20232;-72
2023/02/05 01:17:32;;;;;;;23.95;7.97;;;;;;;;;;1036709;28;20017;-72
2023/02/05 01:18:03;;;;;;;12.82;6.57;;;;;;;;;;1037516;28;20458;-72
2023/02/05 01:18:33;;;;;;;12.02;7.10;;;;;;;;;;1037501;28;20026;-72
2023/02/05 01:19:04;;;;;;;15.82;7.78;;;;;;;;;;1036870;28;20538;-72
2023/02/05 01:19:35;;;;;;;15.45;6.82;;;;;;;;;;1038462;28;20029;-72
2023/02/05 01:20:06;;;;;;;12.98;7.20;;;;;;;;;;1036854;28;20092;-72
2023/02/05 01:20:37;;;;;;;15.52;5.82;;;;;;;;;;1038648;28;20026;-72
2023/02/05 01:21:07;;;;;;;18.55;8.15;;;;;;;;;;1038300;28;20025;-72
2023/02/05 01:21:38;;;;;;;14.52;7.22;;;;;;;;;;1037390;28;20024;-72
2023/02/05 01:22:10;;;;;;;10.77;5.82;;;;;;;;;;1038065;28;20397;-72
2023/02/05 01:22:41;;;;;;;18.15;8.27;;;;;;;;;;1037565;28;20033;-75
2023/02/05 01:23:11;;;;;;;16.42;7.80;;;;;;;;;;1038619;28;20057;-72
2023/02/05 01:23:42;;;;;;;13.98;7.13;;;;;;;;;;1037264;28;20018;-72
2023/02/05 01:24:12;;;;;;;15.70;7.38;;;;;;;;;;1036104;28;20037;-72
2023/02/05 01:24:43;;;;;;;16.88;5.15;;;;;;;;;;1038014;28;20022;-72
2023/02/05 01:25:13;;;;;;;16.25;7.63;;;;;;;;;;1038084;28;20030;-72
2023/02/05 01:25:44;;;;;;;11.23;6.30;;;;;;;;;;1036488;28;20152;-72
2023/02/05 01:26:15;;;;;;;16.55;8.75;;;;;;;;;;1038019;28;20021;-72
2023/02/05 01:26:47;;;;;;;14.60;7.68;;;;;;;;;;1036387;28;20018;-72
2023/02/05 01:27:17;;;;;;;11.50;5.60;;;;;;;;;;1037353;28;20021;-72
2023/02/05 01:27:48;;;;;;;14.18;7.35;;;;;;;;;;1038448;28;20022;-72
2023/02/05 01:28:18;;;;;;;11.38;6.53;;;;;;;;;;1037823;28;20102;-72
2023/02/05 01:28:49;;;;;;;17.25;6.72;;;;;;;;;;1035950;28;20022;-72
2023/02/05 01:29:19;;;;;;;16.02;7.65;;;;;;;;;;1037509;28;20133;-72
2023/02/05 01:29:50;;;;;;;17.10;7.45;;;;;;;;;;1037872;28;20113;-72
2023/02/05 01:30:20;;;;;;;17.55;7.18;;;;;;;;;;1034664;28;20026;-72
2023/02/05 01:30:51;;;;;;;9.73;5.95;;;;;;;;;;1034349;28;20078;-72
2023/02/05 01:31:22;;;;;;;20.80;6.80;;;;;;;;;;1036704;28;20040;-72
2023/02/05 01:31:53;;;;;;;10.20;5.60;;;;;;;;;;1037934;28;20022;-72
2023/02/05 01:32:23;;;;;;;12.35;5.85;;;;;;;;;;1038196;28;20018;-72
2023/02/05 01:32:54;;;;;;;13.43;7.32;;;;;;;;;;1037174;28;20414;-72
2023/02/05 01:33:24;;;;;;;19.15;6.75;;;;;;;;;;1037599;28;20089;-72
2023/02/05 01:33:55;;;;;;;19.90;7.22;;;;;;;;;;1037426;28;20144;-72
2023/02/05 01:34:25;;;;;;;14.60;6.70;;;;;;;;;;1036903;28;20481;-72
2023/02/05 01:34:55;;;;;;;11.55;5.35;;;;;;;;;;1037299;28;20026;-72
2023/02/05 01:35:26;;;;;;;9.52;5.22;;;;;;;;;;1038018;28;20063;-72
2023/02/05 01:35:56;;;;;;;14.52;6.75;;;;;;;;;;1035994;28;20046;-72
2023/02/05 01:36:27;;;;;;;18.38;7.15;;;;;;;;;;1035183;28;20106;-72
2023/02/05 01:36:57;;;;;;;17.17;6.85;;;;;;;;;;1035297;28;20557;-72
2023/02/05 01:37:28;;;;;;;9.48;5.57;;;;;;;;;;1036796;28;20056;-72
2023/02/05 01:37:58;;;;;;;15.90;6.13;;;;;;;;;;1042025;28;20025;-72
2023/02/05 01:38:29;;;;;;;10.18;6.40;;;;;;;;;;1036458;28;20026;-72
2023/02/05 01:38:59;;;;;;;10.73;5.32;;;;;;;;;;1037279;28;20469;-72
2023/02/05 01:39:30;;;;;;;14.02;6.32;;;;;;;;;;1036271;28;20025;-72
2023/02/05 01:40:00;;;;;;;11.05;5.28;;;;;;;;;;1037254;28;20108;-72
2023/02/05 01:40:31;;;;;;;7.38;4.72;;;;;;;;;;1040411;28;20104;-72
2023/02/05 01:41:01;;;;;;;14.35;5.38;;;;;;;;;;1041768;28;20025;-72
2023/02/05 01:41:32;;;;;;;15.90;7.60;;;;;;;;;;1036723;28;20366;-72
2023/02/05 01:42:03;;;;;;;13.60;6.30;;;;;;;;;;1038078;28;20444;-72
2023/02/05 01:42:34;;;;;;;11.27;5.60;;;;;;;;;;1036697;28;20088;-72
2023/02/05 01:43:09;;;;;;;11.90;5.88;;;;;;;;;;1036572;28;20504;-72
2023/02/05 01:43:39;;;;;;;15.65;7.70;;;;;;;;;;1035972;28;20022;-72
2023/02/05 01:44:17;;;;;;;11.98;6.07;;;;;;;;;;1037160;28;20116;-72
2023/02/05 01:45:07;;;;;;;17.63;8.20;;;;;;;;;;1038180;28;20609;-72
2023/02/05 01:45:49;;;;;;;14.10;7.28;;;;;;;;;;1036686;28;20106;-72
2023/02/05 01:46:23;;;;;;;17.95;7.25;;;;;;;;;;1036233;28;20026;-72
2023/02/05 01:46:54;;;;;;;14.38;7.22;;;;;;;;;;1036310;28;20112;-72
2023/02/05 01:47:24;;;;;;;13.38;6.18;;;;;;;;;;1037421;28;20081;-72
2023/02/05 01:47:56;;;;;;;9.63;5.68;;;;;;;;;;1036547;28;20474;-72
2023/02/05 01:48:28;;;;;;;17.80;8.10;;;;;;;;;;1037720;28;20030;-72
2023/02/05 01:48:59;;;;;;;19.67;8.68;;;;;;;;;;1038870;28;20064;-72
2023/02/05 01:49:32;;;;;;;16.10;5.47;;;;;;;;;;1036199;28;20036;-72
2023/02/05 01:50:03;;;;;;;16.10;7.45;;;;;;;;;;1033506;28;20050;-72
2023/02/05 01:50:36;;;;;;;15.55;6.72;;;;;;;;;;1031985;28;20481;-72
2023/02/05 01:51:10;;;;;;;17.45;6.70;;;;;;;;;;1033832;28;20066;-72
2023/02/05 01:51:41;;;;;;;11.68;6.43;;;;;;;;;;1037676;28;20160;-72
2023/02/05 01:52:14;;;;;;;14.63;8.07;;;;;;;;;;1037738;28;20030;-72
2023/02/05 01:52:45;;;;;;;15.15;7.70;;;;;;;;;;1038415;28;20036;-72
2023/02/05 01:53:18;;;;;;;11.43;7.03;;;;;;;;;;1037594;28;20072;-72
2023/02/05 01:53:49;;;;;;;14.70;6.82;;;;;;;;;;1038147;28;20049;-72
2023/02/05 01:54:21;;;;;;;16.08;7.45;;;;;;;;;;1037678;28;20065;-72
2023/02/05 01:54:53;;;;;;;16.90;7.00;;;;;;;;;;1037994;28;20105;-72
2023/02/05 01:55:24;;;;;;;12.75;7.35;;;;;;;;;;1033435;28;20118;-72
2023/02/05 01:56:06;;;;;;;12.63;6.25;;;;;;;;;;1032741;28;20026;-72
2023/02/05 01:56:41;;;;;;;13.30;5.32;;;;;;;;;;1035381;28;20041;-72
2023/02/05 01:57:15;;;;;;;16.67;7.53;;;;;;;;;;1036149;28;20038;-72
2023/02/05 01:57:47;;;;;;;14.40;6.53;;;;;;;;;;1037109;28;20022;-72
2023/02/05 01:58:19;;;;;;;16.58;7.10;;;;;;;;;;1035557;28;20022;-72
2023/02/05 01:58:52;;;;;;;16.45;7.22;;;;;;;;;;1035293;28;20026;-72
2023/02/05 01:59:25;;;;;;;14.65;7.00;;;;;;;;;;1037385;28;20021;-71
2023/02/05 01:59:56;;;;;;;20.20;6.95;;;;;;;;;;1038045;28;20017;-72
2023/02/05 02:00:26;;;;;;;12.68;6.50;;;;;;;;;;1037298;28;20033;-72
2023/02/05 02:00:57;;;;;;;12.45;6.18;;;;;;;;;;1038270;28;20053;-72
2023/02/05 02:01:28;;;;;;;15.93;8.25;;;;;;;;;;1036493;28;20504;-72
2023/02/05 02:01:59;;;;;;;13.43;7.57;;;;;;;;;;1037235;28;20029;-72
2023/02/05 02:02:30;;;;;;;14.63;5.85;;;;;;;;;;1037340;28;20022;-72
2023/02/05 02:03:00;;;;;;;15.70;7.47;;;;;;;;;;1035624;28;20464;-72
2023/02/05 02:03:31;;;;;;;16.05;7.78;;;;;;;;;;1035723;28;20603;-72
2023/02/05 02:04:05;;;;;;;17.65;7.10;;;;;;;;;;1037424;28;20033;-72
2023/02/05 02:04:38;;;;;;;10.40;6.10;;;;;;;;;;1036167;28;20481;-72
2023/02/05 02:05:09;;;;;;;14.13;7.32;;;;;;;;;;1036040;28;20087;-72
2023/02/05 02:05:40;;;;;;;15.48;8.10;;;;;;;;;;1036201;28;20022;-72
2023/02/05 02:06:10;;;;;;;17.48;8.23;;;;;;;;;;1034226;28;20453;-72
2023/02/05 02:06:41;;;;;;;12.75;6.93;;;;;;;;;;1036676;28;20029;-72
2023/02/05 02:07:21;;;;;;;17.00;7.47;;;;;;;;;;1038981;28;20093;-72
2023/02/05 02:07:52;;;;;;;15.80;8.25;;;;;;;;;;1035228;28;20030;-72
2023/02/05 02:08:22;;;;;;;17.77;7.80;;;;;;;;;;1037677;28;20022;-72
2023/02/05 02:08:53;;;;;;;13.68;5.72;;;;;;;;;;1036537;28;20030;-72
2023/02/05 02:09:23;;;;;;;15.77;7.28;;;;;;;;;;1038036;28;20048;-72
2023/02/05 02:09:54;;;;;;;17.65;6.50;;;;;;;;;;1038606;28;20030;-72
2023/02/05 02:10:25;;;;;;;13.88;6.85;;;;;;;;;;1036779;28;20060;-72
2023/02/05 02:10:56;;;;;;;16.02;8.18;;;;;;;;;;1037460;28;20170;-72
2023/02/05 02:11:28;;;;;;;16.75;6.90;;;;;;;;;;1036520;28;20061;-72
2023/02/05 02:11:59;;;;;;;15.55;7.60;;;;;;;;;;1036646;28;20036;-72
2023/02/05 02:12:32;;;;;;;12.80;5.30;;;;;;;;;;1036485;28;20489;-72
2023/02/05 02:13:03;;;;;;;11.00;6.78;;;;;;;;;;1036856;28;20161;-72
2023/02/05 02:13:35;;;;;;;14.75;7.25;;;;;;;;;;1037122;28;20032;-72
2023/02/05 02:14:06;;;;;;;14.93;6.03;;;;;;;;;;1037907;28;20034;-72
2023/02/05 02:14:37;;;;;;;20.45;5.95;;;;;;;;;;1038321;28;20052;-72
2023/02/05 02:15:09;;;;;;;16.38;7.18;;;;;;;;;;1037886;28;20097;-72
2023/02/05 02:15:40;;;;;;;15.05;8.07;;;;;;;;;;1040868;28;20027;-72
2023/02/05 02:16:10;;;;;;;14.70;7.60;;;;;;;;;;1040858;28;20073;-72
2023/02/05 02:16:41;;;;;;;15.38;6.15;;;;;;;;;;1036185;28;20040;-72
2023/02/05 02:17:12;;;;;;;14.40;6.95;;;;;;;;;;1037208;28;20021;-72
2023/02/05 02:17:45;;;;;;;11.05;5.57;;;;;;;;;;1037795;28;20018;-72
2023/02/05 02:18:26;;;;;;;15.63;5.25;;;;;;;;;;1038141;28;20484;-72
2023/02/05 02:18:57;;;;;;;11.68;6.72;;;;;;;;;;1037592;28;20036;-72
2023/02/05 02:19:43;;;;;;;13.93;7.05;;;;;;;;;;1037661;28;20028;-72
2023/02/05 02:20:16;;;;;;;15.68;6.50;;;;;;;;;;1036843;28;20021;-72
2023/02/05 02:20:50;;;;;;;10.32;6.20;;;;;;;;;;1035416;28;20072;-72
2023/02/05 02:21:33;;;;;;;13.05;6.68;;;;;;;;;;1034136;28;20553;-72
2023/02/05 02:22:03;;;;;;;15.45;6.70;;;;;;;;;;1033921;28;20026;-72
2023/02/05 02:22:52;;;;;;;16.75;7.13;;;;;;;;;;1031396;28;20023;-72
2023/02/05 02:23:30;;;;;;;11.48;5.95;;;;;;;;;;1033047;28;20023;-72
2023/02/05 02:24:19;;;;;;;10.75;5.32;;;;;;;;;;1034245;28;20061;-72
2023/02/05 02:25:04;;;;;;;13.95;7.00;;;;;;;;;;1036377;28;20022;-72
2023/02/05 02:25:47;;;;;;;10.10;4.93;;;;;;;;;;1036670;28;20080;-72
2023/02/05 02:26:39;;;;;;;14.23;6.32;;;;;;;;;;1037333;28;20026;-72
2023/02/05 02:27:12;;;;;;;18.52;6.63;;;;;;;;;;1036233;28;20024;-72
2023/02/05 02:27:44;;;;;;;14.30;5.95;;;;;;;;;;1036235;28;20010;-72
2023/02/05 02:28:22;;;;;;;24.38;6.60;;;;;;;;;;1034536;28;20029;-72
2023/02/05 02:28:58;;;;;;;10.52;5.88;;;;;;;;;;1035603;28;20517;-72
2023/02/05 02:29:41;;;;;;;11.45;6.28;;;;;;;;;;1035804;28;20386;-72
2023/02/05 02:30:33;;;;;;;15.02;6.50;;;;;;;;;;1035671;28;20040;-72
2023/02/05 02:31:21;;;;;;;14.82;7.75;;;;;;;;;;1036000;28;20544;-72
2023/02/05 02:31:58;;;;;;;12.68;6.90;;;;;;;;;;1036462;28;20033;-72
2023/02/05 02:32:28;;;;;;;13.38;5.68;;;;;;;;;;1036562;28;20109;-72
2023/02/05 02:33:05;;;;;;;13.90;6.35;;;;;;;;;;1036306;28;20029;-72
2023/02/05 02:34:08;;;;;;;19.88;7.97;;;;;;;;;;1034415;28;20510;-72
2023/02/05 02:34:42;;;;;;;18.20;6.45;;;;;;;;;;1034720;28;20409;-72
2023/02/05 02:35:31;;;;;;;13.57;7.13;;;;;;;;;;1034146;28;20176;-72
2023/02/05 02:36:07;;;;;;;10.10;6.53;;;;;;;;;;1038198;28;20085;-72
2023/02/05 02:36:58;;;;;;;18.25;7.40;;;;;;;;;;1036688;28;20044;-72
2023/02/05 02:37:33;;;;;;;14.85;6.95;;;;;;;;;;1035496;28;20524;-72
2023/02/05 02:38:14;;;;;;;13.13;5.88;;;;;;;;;;1033123;28;20546;-72
2023/02/05 02:38:50;;;;;;;11.80;6.07;;;;;;;;;;1037007;28;20383;-72
2023/02/05 02:39:26;;;;;;;16.27;6.63;;;;;;;;;;1037334;28;20480;-72
2023/02/05 02:39:59;;;;;;;15.02;6.80;;;;;;;;;;1036135;28;20025;-72
2023/02/05 02:40:42;;;;;;;13.25;6.43;;;;;;;;;;1037211;28;20022;-72
2023/02/05 02:41:15;;;;;;;14.68;7.65;;;;;;;;;;1038056;28;20505;-72
2023/02/05 02:41:49;;;;;;;14.88;5.95;;;;;;;;;;1036684;28;20093;-72
2023/02/05 02:42:24;;;;;;;15.20;5.90;;;;;;;;;;1037558;28;20040;-72
2023/02/05 02:43:10;;;;;;;10.45;6.00;;;;;;;;;;1036554;28;20044;-72
2023/02/05 02:43:40;;;;;;;14.02;6.63;;;;;;;;;;1036793;28;20028;-72
2023/02/05 02:44:10;;;;;;;18.25;6.88;;;;;;;;;;1037023;28;20033;-72
2023/02/05 02:44:47;;;;;;;16.20;7.25;;;;;;;;;;1035789;28;20017;-72
2023/02/05 02:45:20;;;;;;;13.10;5.95;;;;;;;;;;1036925;28;20029;-72
2023/02/05 02:45:53;;;;;;;12.98;6.85;;;;;;;;;;1037596;28;20025;-72
2023/02/05 02:46:29;;;;;;;19.98;6.68;;;;;;;;;;1037733;28;20481;-72
2023/02/05 02:47:02;;;;;;;13.23;7.55;;;;;;;;;;1037282;28;20385;-72
2023/02/05 02:47:59;;;;;;;15.20;7.75;;;;;;;;;;1037365;28;20029;-72
2023/02/05 02:48:31;;;;;;;8.45;5.80;;;;;;;;;;1034684;28;20032;-72
2023/02/05 02:49:04;;;;;;;15.20;6.55;;;;;;;;;;1035850;28;20025;-72
2023/02/05 02:49:40;;;;;;;12.93;6.60;;;;;;;;;;1037271;28;20076;-72
2023/02/05 02:50:14;;;;;;;14.98;8.23;;;;;;;;;;1037042;28;20041;-72
2023/02/05 02:50:46;;;;;;;19.27;8.77;;;;;;;;;;1036362;28;20069;-72
2023/02/05 02:51:17;;;;;;;19.17;8.32;;;;;;;;;;1036207;28;20021;-72
2023/02/05 02:51:50;;;;;;;16.83;6.15;;;;;;;;;;1037168;28;20029;-72
2023/02/05 02:52:22;;;;;;;15.82;7.68;;;;;;;;;;1036928;28;20033;-72
2023/02/05 02:52:53;;;;;;;20.88;8.18;;;;;;;;;;1037583;28;20022;-72
2023/02/05 02:53:28;;;;;;;21.77;8.68;;;;;;;;;;1036027;28;20026;-72
2023/02/05 02:54:02;;;;;;;14.05;7.20;;;;;;;;;;1037715;28;20029;-72
2023/02/05 02:54:34;;;;;;;19.42;7.68;;;;;;;;;;1036346;28;20101;-72
2023/02/05 02:55:08;;;;;;;18.02;9.63;;;;;;;;;;1031932;28;20061;-72
2023/02/05 02:55:41;;;;;;;18.98;8.65;;;;;;;;;;1032527;28;20026;-72
2023/02/05 02:56:12;;;;;;;16.42;7.65;;;;;;;;;;1033065;28;20554;-72
2023/02/05 02:56:44;;;;;;;20.98;9.57;;;;;;;;;;1037166;28;20050;-72
2023/02/05 02:57:16;;;;;;;17.05;7.68;;;;;;;;;;1037098;28;20025;-72
2023/02/05 02:57:48;;;;;;;16.38;8.73;;;;;;;;;;1037103;28;20030;-72
2023/02/05 02:58:28;;;;;;;25.70;9.18;;;;;;;;;;1037676;28;20021;-72
2023/02/05 02:59:05;;;;;;;17.50;8.85;;;;;;;;;;1036561;28;20363;-72
2023/02/05 02:59:37;;;;;;;20.23;10.02;;;;;;;;;;1036675;28;20513;-72
2023/02/05 03:00:12;;;;;;;27.85;11.10;;;;;;;;;;1037940;28;20508;-72
2023/02/05 03:00:45;;;;;;;26.70;10.88;;;;;;;;;;1034893;28;20052;-72
2023/02/05 03:01:17;;;;;;;28.85;11.75;;;;;;;;;;1032295;28;20109;-72
2023/02/05 03:01:50;;;;;;;27.35;10.88;;;;;;;;;;1033058;28;20030;-72
2023/02/05 03:02:21;;;;;;;25.67;11.73;;;;;;;;;;1034307;28;20089;-72
2023/02/05 03:02:54;;;;;;;29.50;10.55;;;;;;;;;;1036227;28;20207;-72
2023/02/05 03:03:26;;;;;;;25.10;12.05;;;;;;;;;;1034316;28;20024;-72
2023/02/05 03:04:03;;;;;;;23.25;11.85;;;;;;;;;;1037067;28;20026;-72
2023/02/05 03:04:37;;;;;;;19.58;11.75;;;;;;;;;;1035989;28;20026;-72
2023/02/05 03:05:10;;;;;;;18.80;11.20;;;;;;;;;;1035508;28;20022;-72
2023/02/05 03:05:41;;;;;;;20.25;11.18;;;;;;;;;;1033911;28;20022;-72
2023/02/05 03:06:13;;;;;;;20.08;9.85;;;;;;;;;;1033096;28;20033;-72
2023/02/05 03:06:46;;;;;;;25.25;12.32;;;;;;;;;;1035520;28;20545;-72
2023/02/05 03:07:19;;;;;;;25.17;12.85;;;;;;;;;;1034528;28;20565;-72
2023/02/05 03:07:57;;;;;;;28.40;11.63;;;;;;;;;;1034978;28;20445;-72
2023/02/05 03:08:29;;;;;;;24.70;11.18;;;;;;;;;;1035164;28;20030;-72
2023/02/05 03:09:00;;;;;;;22.98;10.35;;;;;;;;;;1033131;28;20056;-72
2023/02/05 03:09:51;;;;;;;21.20;11.35;;;;;;;;;;1034244;28;20032;-72
2023/02/05 03:10:31;;;;;;;31.23;11.23;;;;;;;;;;1037081;28;20025;-71
2023/02/05 03:11:04;;;;;;;25.75;10.75;;;;;;;;;;1039875;28;20029;-71